Baltimore, Maryland
Traffic Map
Current Weather Conditions
Baltimore, Maryland
Overcast Light Rain
Overcast
62°
Feels Like: 62°
Wind Chill: 62° Ceiling: 400
Heat Index: 62° Visibility: 2.5mi
Dew Point: 61° Wind: 13mph
Humidity: 96% Direction: 50° (NE)
Pressure: 30.12in Gusts: 0mph
Raw Report DataKBWI 011704Z 05011KT 2 1/2SM -RA BR OVC004 17/16 A3012 RMK AO2 P0000 T01670161
Traffic Incident Summary
Active as of:
Severity:
Category:
InformationThere was an issue retrieving the traffic information for this location. Please try a different location or try again shortly.
Advertisements
Track Severe Weather on mobile